Time;durP1;ratioP1;P1;durP2;ratioP2;P2;SDS_P1;SDS_P2;PMS_P1;PMS_P2;Temp;Humidity;BMP_temperature;BMP_pressure;BME280_temperature;BME280_humidity;BME280_pressure;Samples;Min_cycle;Max_cycle;Signal;HPM_P1;HPM_P2
2023/01/22 05:22:43;;;;;;;14.07;9.67;;;12.00;99.30;;;;;;4589364;19;20543;-33
2023/01/22 05:24:17;;;;;;;12.87;9.43;;;12.10;99.30;;;;;;4589476;19;20460;-33
2023/01/22 05:25:49;;;;;;;12.50;8.93;;;12.10;99.20;;;;;;4593003;19;20772;-32
2023/01/22 05:27:20;;;;;;;10.88;8.55;;;12.10;99.20;;;;;;4592804;19;20552;-33
2023/01/22 05:28:51;;;;;;;14.15;10.05;;;12.10;99.20;;;;;;4592622;19;20411;-32
2023/01/22 05:30:22;;;;;;;11.32;8.38;;;12.10;99.40;;;;;;4593328;19;20014;-33
2023/01/22 05:31:54;;;;;;;14.65;10.05;;;12.10;99.20;;;;;;4593462;19;20011;-32
2023/01/22 05:33:28;;;;;;;13.33;8.93;;;12.10;99.20;;;;;;4592706;19;20384;-32
2023/01/22 05:34:59;;;;;;;12.83;9.27;;;12.10;99.20;;;;;;4591379;19;20445;-33
2023/01/22 05:36:30;;;;;;;12.13;8.48;;;12.10;99.20;;;;;;4591895;19;20969;-33
2023/01/22 05:38:02;;;;;;;11.77;8.05;;;12.00;99.20;;;;;;4590363;19;20047;-34
2023/01/22 05:39:34;;;;;;;13.80;10.13;;;12.10;99.20;;;;;;4591186;19;20048;-35
2023/01/22 05:41:05;;;;;;;12.02;9.00;;;12.00;99.30;;;;;;4592620;19;20464;-33
2023/01/22 05:42:36;;;;;;;12.35;9.18;;;12.00;99.30;;;;;;4591834;19;20082;-35
2023/01/22 05:44:11;;;;;;;13.50;9.60;;;12.00;99.40;;;;;;4590687;19;20114;-34
2023/01/22 05:45:42;;;;;;;12.00;8.80;;;12.00;99.50;;;;;;4590439;19;20307;-32
2023/01/22 05:47:14;;;;;;;12.00;8.70;;;12.00;99.50;;;;;;4591305;19;20776;-34
2023/01/22 05:48:46;;;;;;;12.67;8.70;;;12.00;99.60;;;;;;4592773;19;20489;-34
2023/01/22 05:50:17;;;;;;;12.73;8.70;;;12.00;99.60;;;;;;4592970;19;20508;-32
2023/01/22 05:52:10;;;;;;;13.70;9.45;;;12.00;99.60;;;;;;4591197;19;20010;-32
2023/01/22 05:53:41;;;;;;;13.50;10.13;;;12.00;99.60;;;;;;4590529;19;20022;-32
2023/01/22 05:55:13;;;;;;;10.75;8.00;;;12.00;99.60;;;;;;4591117;19;21068;-32
2023/01/22 05:56:45;;;;;;;12.03;8.80;;;12.10;99.60;;;;;;4589479;19;20014;-32
2023/01/22 05:58:16;;;;;;;10.32;7.65;;;12.00;99.60;;;;;;4590131;19;20487;-32
2023/01/22 05:59:47;;;;;;;12.35;9.15;;;12.00;99.60;;;;;;4592063;19;20046;-32
2023/01/22 06:01:18;;;;;;;13.65;9.25;;;12.00;99.60;;;;;;4591543;19;20014;-32
2023/01/22 06:02:57;;;;;;;12.23;8.50;;;12.00;99.60;;;;;;4591827;19;20018;-33
2023/01/22 06:04:28;;;;;;;13.43;8.70;;;12.10;99.60;;;;;;4591916;19;20026;-32
2023/01/22 06:06:00;;;;;;;12.52;9.27;;;12.10;99.60;;;;;;4590937;19;20508;-34
2023/01/22 06:07:31;;;;;;;12.83;9.00;;;12.10;99.70;;;;;;4590449;19;20401;-32
2023/01/22 06:09:02;;;;;;;11.10;8.40;;;12.00;99.70;;;;;;4591510;19;20495;-35
2023/01/22 06:10:34;;;;;;;12.40;8.85;;;12.00;99.70;;;;;;4592345;19;20015;-32
2023/01/22 06:12:05;;;;;;;13.38;9.50;;;12.10;99.70;;;;;;4591287;19;20011;-32
2023/01/22 06:13:36;;;;;;;12.43;8.43;;;12.00;99.70;;;;;;4591280;19;20006;-32
2023/01/22 06:15:08;;;;;;;13.77;9.18;;;12.00;99.80;;;;;;4592419;19;20014;-33
2023/01/22 06:16:58;;;;;;;12.80;10.13;;;12.00;99.80;;;;;;4592163;19;20029;-33
2023/01/22 06:18:29;;;;;;;13.03;9.30;;;12.00;99.80;;;;;;4592643;19;20728;-36
2023/01/22 06:20:01;;;;;;;14.20;10.23;;;12.00;99.80;;;;;;4591268;19;21084;-32
2023/01/22 06:21:32;;;;;;;12.45;8.68;;;12.00;99.90;;;;;;4591403;19;20484;-32
2023/01/22 06:23:03;;;;;;;13.82;9.43;;;12.00;99.90;;;;;;4589416;19;20031;-32
2023/01/22 06:26:20;;;;;;;13.17;9.47;;;12.00;99.80;;;;;;4590577;19;20599;-33
2023/01/22 06:27:51;;;;;;;12.55;9.35;;;12.00;99.80;;;;;;4590124;19;20473;-32
2023/01/22 06:29:23;;;;;;;14.60;10.18;;;12.00;99.80;;;;;;4592358;19;20352;-33
2023/01/22 06:31:01;;;;;;;15.32;9.93;;;12.10;99.80;;;;;;4590464;19;20003;-34
2023/01/22 06:32:32;;;;;;;14.40;10.10;;;12.10;99.70;;;;;;4590699;19;20464;-34
2023/01/22 06:34:04;;;;;;;13.18;9.50;;;12.10;99.70;;;;;;4591465;19;20834;-32
2023/01/22 06:35:35;;;;;;;;;;;12.10;99.70;;;;;;4591280;19;20036;-32
2023/01/22 06:37:06;;;;;;;13.93;9.53;;;12.10;99.70;;;;;;4589976;19;19919;-32
2023/01/22 06:38:37;;;;;;;12.43;8.77;;;12.10;99.80;;;;;;4590101;19;20007;-36
2023/01/22 06:40:09;;;;;;;11.77;8.38;;;12.10;99.80;;;;;;4592677;19;20007;-35
2023/01/22 06:41:40;;;;;;;13.00;8.63;;;12.10;99.70;;;;;;4592295;19;20010;-32
2023/01/22 06:43:11;;;;;;;13.23;8.80;;;12.10;99.80;;;;;;4592653;19;20010;-32
2023/01/22 06:44:42;;;;;;;13.38;8.88;;;12.10;99.70;;;;;;4589686;19;20031;-33
2023/01/22 06:46:13;;;;;;;11.88;8.60;;;12.10;99.70;;;;;;4589424;19;20078;-32
2023/01/22 06:47:45;;;;;;;12.63;8.85;;;12.10;99.70;;;;;;4588226;19;20018;-32
2023/01/22 06:49:16;;;;;;;14.15;8.43;;;12.10;99.80;;;;;;4590688;19;20027;-32
2023/01/22 06:50:47;;;;;;;12.38;8.52;;;12.10;99.70;;;;;;4591300;19;20006;-32
2023/01/22 06:52:19;;;;;;;12.15;8.55;;;12.10;99.80;;;;;;4589387;19;20018;-32
2023/01/22 06:53:50;;;;;;;11.45;8.50;;;12.10;99.80;;;;;;4588778;19;20026;-32
2023/01/22 06:55:21;;;;;;;12.13;8.43;;;12.10;99.70;;;;;;4591396;19;20010;-32
2023/01/22 06:56:52;;;;;;;11.88;9.20;;;12.10;99.80;;;;;;4590696;19;20010;-31
2023/01/22 06:58:23;;;;;;;13.45;9.20;;;10.70;99.90;;;;;;4590979;19;20031;-30
2023/01/22 06:59:54;;;;;;;12.38;9.40;;;9.40;99.90;;;;;;4590688;19;20031;-30
2023/01/22 07:01:27;;;;;;;14.37;9.77;;;8.70;99.90;;;;;;4589706;19;20369;-31
2023/01/22 07:02:58;;;;;;;13.93;10.40;;;8.40;99.90;;;;;;4589182;19;20592;-30
2023/01/22 07:04:29;;;;;;;12.75;9.50;;;8.20;99.90;;;;;;4588910;19;20015;-31
2023/01/22 07:06:01;;;;;;;15.07;9.63;;;8.10;99.90;;;;;;4589959;19;20075;-31
2023/01/22 07:07:33;;;;;;;15.50;10.13;;;8.10;99.90;;;;;;4591046;19;20018;-30
2023/01/22 07:09:04;;;;;;;16.02;10.95;;;8.00;99.90;;;;;;4589315;19;20493;-32
2023/01/22 07:10:36;;;;;;;14.13;10.05;;;8.00;99.90;;;;;;4591159;19;20007;-32
2023/01/22 07:12:08;;;;;;;15.73;10.77;;;8.00;99.90;;;;;;4591262;19;20504;-31
2023/01/22 07:13:39;;;;;;;17.33;12.45;;;8.00;99.90;;;;;;4590435;19;20485;-32
2023/01/22 07:15:10;;;;;;;15.18;10.98;;;7.90;99.90;;;;;;4589784;19;20014;-31
2023/01/22 07:16:42;;;;;;;14.43;10.98;;;7.90;99.90;;;;;;4589266;19;20028;-32
2023/01/22 07:18:13;;;;;;;15.60;11.15;;;7.90;99.90;;;;;;4590176;19;20014;-32
2023/01/22 07:19:44;;;;;;;15.20;10.38;;;7.80;99.90;;;;;;4589172;19;20021;-31
2023/01/22 07:21:16;;;;;;;;;;;7.80;99.90;;;;;;4589687;19;20115;-32
2023/01/22 07:22:47;;;;;;;14.73;9.90;;;7.80;99.90;;;;;;4590283;19;19938;-32
2023/01/22 07:24:19;;;;;;;14.82;9.98;;;7.80;99.90;;;;;;4589809;19;20010;-31
2023/01/22 07:27:41;;;;;;;15.93;10.85;;;7.80;99.90;;;;;;4587485;19;20003;-32
2023/01/22 07:29:13;;;;;;;14.45;10.25;;;7.70;99.90;;;;;;4590482;19;20482;-32
2023/01/22 07:30:46;;;;;;;15.25;10.65;;;7.80;99.90;;;;;;4590234;19;20504;-31
2023/01/22 07:32:18;;;;;;;13.30;9.67;;;7.70;99.90;;;;;;4589547;19;20022;-30
2023/01/22 07:33:50;;;;;;;13.97;10.23;;;7.70;99.90;;;;;;4590978;19;20472;-30
2023/01/22 07:35:21;;;;;;;16.13;10.65;;;7.70;99.90;;;;;;4589054;19;20570;-30
2023/01/22 07:36:52;;;;;;;12.70;9.48;;;7.70;99.90;;;;;;4589008;19;20026;-30
2023/01/22 07:38:27;;;;;;;;;;;7.70;99.90;;;;;;4589662;19;20026;-31
2023/01/22 07:39:59;;;;;;;12.73;9.60;;;7.70;99.90;;;;;;4589821;19;20454;-32
2023/01/22 07:41:30;;;;;;;16.38;10.30;;;7.70;99.90;;;;;;4588489;19;20425;-31
2023/01/22 07:43:05;;;;;;;14.98;10.02;;;7.90;99.90;;;;;;4589424;19;20014;-30
2023/01/22 07:44:39;;;;;;;13.67;9.57;;;8.70;99.90;;;;;;4589005;19;20019;-30
2023/01/22 07:46:11;;;;;;;13.17;9.77;;;9.40;99.90;;;;;;4589312;19;21019;-32
2023/01/22 07:47:55;;;;;;;14.98;9.57;;;10.00;99.90;;;;;;4589719;19;20478;-32
2023/01/22 07:49:26;;;;;;;13.97;9.70;;;10.40;99.90;;;;;;4589048;19;20021;-31
2023/01/22 07:51:04;;;;;;;13.77;9.30;;;10.70;99.90;;;;;;4589282;19;20465;-31
2023/01/22 07:52:35;;;;;;;12.40;8.83;;;10.90;99.90;;;;;;4588150;19;20033;-31
2023/01/22 07:54:07;;;;;;;14.73;9.38;;;11.10;99.90;;;;;;4589340;19;20541;-32
2023/01/22 07:55:39;;;;;;;14.67;9.93;;;11.20;99.90;;;;;;4591335;19;20018;-32
2023/01/22 07:57:14;;;;;;;16.60;10.63;;;11.30;99.90;;;;;;4587704;19;20510;-32
2023/01/22 07:58:45;;;;;;;18.70;11.00;;;11.50;99.90;;;;;;4588843;19;20508;-32
2023/01/22 08:00:16;;;;;;;15.48;10.18;;;11.60;99.90;;;;;;4591452;19;20493;-32
2023/01/22 08:01:48;;;;;;;16.30;10.25;;;11.60;99.90;;;;;;4589869;19;20038;-33
2023/01/22 08:03:19;;;;;;;13.38;9.00;;;11.70;99.90;;;;;;4588850;19;20046;-33
2023/01/22 08:04:51;;;;;;;12.07;8.53;;;11.70;99.90;;;;;;4589879;19;20007;-33
2023/01/22 08:06:22;;;;;;;12.18;8.20;;;11.80;99.90;;;;;;4589230;19;20429;-33
2023/01/22 08:07:53;;;;;;;12.38;8.23;;;11.80;99.90;;;;;;4590913;19;20038;-33
2023/01/22 08:09:24;;;;;;;11.10;7.97;;;11.80;99.90;;;;;;4589969;19;20034;-33
2023/01/22 08:10:58;;;;;;;12.60;8.63;;;11.80;99.90;;;;;;4590399;19;20014;-33
2023/01/22 08:12:31;;;;;;;11.70;7.90;;;11.80;99.90;;;;;;4589847;19;19998;-33
2023/01/22 08:14:01;;;;;;;12.88;8.88;;;11.90;99.90;;;;;;4588511;19;20496;-33
2023/01/22 08:15:33;;;;;;;10.52;7.53;;;11.90;99.90;;;;;;4588594;19;20051;-32
2023/01/22 08:17:04;;;;;;;10.48;7.70;;;11.90;99.90;;;;;;4590242;19;20536;-32
2023/01/22 08:18:35;;;;;;;10.50;6.95;;;11.90;99.90;;;;;;4589430;19;20492;-32
2023/01/22 08:20:09;;;;;;;8.60;6.80;;;11.90;99.90;;;;;;4589664;19;20014;-32
2023/01/22 08:21:40;;;;;;;;;;;11.90;99.90;;;;;;4590928;19;21024;-32
2023/01/22 08:23:11;;;;;;;9.40;7.07;;;11.90;99.90;;;;;;4589384;19;19974;-32
2023/01/22 08:24:42;;;;;;;10.30;7.38;;;11.90;99.90;;;;;;4589228;19;20025;-32
2023/01/22 08:26:15;;;;;;;9.33;7.00;;;11.90;99.90;;;;;;4588440;19;20509;-32
2023/01/22 08:27:46;;;;;;;10.77;7.45;;;12.00;99.90;;;;;;4588986;19;20492;-32
2023/01/22 08:52:12;;;;;;;11.67;8.07;;;11.90;99.90;;;;;;4594075;19;20461;-32
2023/01/22 08:53:44;;;;;;;11.40;8.18;;;11.90;99.90;;;;;;4594731;19;20511;-32
2023/01/22 08:55:17;;;;;;;11.90;8.17;;;11.90;99.90;;;;;;4590116;19;20018;-32
2023/01/22 08:56:49;;;;;;;;;;;12.00;99.90;;;;;;4593063;19;21048;-32
2023/01/22 08:58:24;;;;;;;10.10;7.53;;;11.90;99.90;;;;;;4593128;19;20596;-33
2023/01/22 08:59:55;;;;;;;10.27;8.30;;;11.90;99.90;;;;;;4588851;19;20484;-32
2023/01/22 09:01:26;;;;;;;10.20;7.90;;;11.90;99.90;;;;;;4590725;19;20600;-33
2023/01/22 09:02:59;;;;;;;13.43;8.93;;;11.90;99.90;;;;;;4590420;19;20022;-32
2023/01/22 09:04:32;;;;;;;11.80;8.60;;;12.00;99.90;;;;;;4591672;19;20499;-35
2023/01/22 09:06:03;;;;;;;11.02;7.95;;;12.00;99.90;;;;;;4592921;19;20495;-32
2023/01/22 09:07:35;;;;;;;11.63;8.20;;;11.90;99.90;;;;;;4590830;19;20385;-32
2023/01/22 09:09:06;;;;;;;10.95;8.40;;;11.90;99.90;;;;;;4591964;19;20025;-33
2023/01/22 09:10:37;;;;;;;10.70;7.72;;;11.90;99.90;;;;;;4590045;19;20027;-32
2023/01/22 09:12:08;;;;;;;12.30;9.15;;;12.00;99.90;;;;;;4591678;19;20024;-33
2023/01/22 09:13:39;;;;;;;11.38;9.00;;;11.90;99.90;;;;;;4593944;19;20010;-32
2023/01/22 09:15:11;;;;;;;12.73;10.70;;;11.90;99.90;;;;;;4592086;19;20486;-34
2023/01/22 09:16:43;;;;;;;15.60;11.45;;;12.00;99.90;;;;;;4593928;19;20384;-32
2023/01/22 09:18:15;;;;;;;18.10;12.17;;;11.90;99.90;;;;;;4590189;19;20105;-32
2023/01/22 09:19:46;;;;;;;14.93;11.10;;;12.00;99.90;;;;;;4592945;19;20523;-32
2023/01/22 09:21:18;;;;;;;17.15;12.57;;;11.90;99.90;;;;;;4593197;19;20045;-34
2023/01/22 09:22:49;;;;;;;16.75;12.55;;;12.00;99.90;;;;;;4589010;19;20019;-32
2023/01/22 09:24:20;;;;;;;18.98;13.32;;;11.90;99.90;;;;;;4592217;19;20488;-34
2023/01/22 09:25:51;;;;;;;19.00;12.48;;;12.00;99.90;;;;;;4592047;19;20014;-32
2023/01/22 09:27:22;;;;;;;16.73;12.07;;;11.90;99.90;;;;;;4591979;19;20015;-34
2023/01/22 09:28:53;;;;;;;15.02;10.88;;;11.90;99.90;;;;;;4592607;19;20110;-35
2023/01/22 09:30:26;;;;;;;15.07;10.63;;;12.00;99.90;;;;;;4591711;19;20019;-33
2023/01/22 09:31:57;;;;;;;20.80;14.13;;;11.90;99.90;;;;;;4593265;19;20456;-32
2023/01/22 09:33:28;;;;;;;17.88;12.90;;;12.00;99.90;;;;;;4591301;19;20533;-32
2023/01/22 09:35:00;;;;;;;17.30;14.60;;;12.00;99.90;;;;;;4590473;19;20521;-32
2023/01/22 09:36:31;;;;;;;15.60;12.05;;;11.90;99.90;;;;;;4592444;19;20011;-32
2023/01/22 09:38:04;;;;;;;13.68;11.20;;;11.90;99.90;;;;;;4592254;19;20022;-32
2023/01/22 09:39:35;;;;;;;17.03;12.23;;;12.00;99.90;;;;;;4589369;19;20023;-33
2023/01/22 09:41:21;;;;;;;14.68;11.52;;;11.90;99.90;;;;;;4590140;19;20510;-33
2023/01/22 09:43:25;;;;;;;30.37;20.57;;;11.90;99.90;;;;;;4591499;19;20026;-33
2023/01/22 09:45:01;;;;;;;45.10;36.43;;;11.90;99.90;;;;;;4588719;19;20469;-34
2023/01/22 09:46:54;;;;;;;39.27;31.23;;;11.90;99.90;;;;;;4589626;19;20495;-33
2023/01/22 09:48:33;;;;;;;53.67;40.67;;;11.90;99.90;;;;;;4589924;19;20462;-31
2023/01/22 09:50:24;;;;;;;31.67;24.50;;;12.00;99.90;;;;;;4590046;19;20928;-35
2023/01/22 09:51:57;;;;;;;19.43;14.67;;;11.90;99.90;;;;;;4589460;19;20579;-34
2023/01/22 09:56:52;;;;;;;16.50;12.90;;;11.90;99.90;;;;;;4587382;19;20520;-31
2023/01/22 09:58:24;;;;;;;26.70;22.33;;;11.90;99.90;;;;;;4589255;19;21233;-34
2023/01/22 09:59:55;;;;;;;26.67;22.33;;;12.00;99.90;;;;;;4589425;19;20465;-33
2023/01/22 10:01:27;;;;;;;21.27;17.70;;;11.90;99.90;;;;;;4589792;19;20056;-34
2023/01/22 10:03:03;;;;;;;13.95;11.43;;;12.00;99.90;;;;;;4590878;19;20476;-34
2023/01/22 10:04:41;;;;;;;15.47;12.00;;;12.00;99.90;;;;;;4589875;19;20363;-35
2023/01/22 10:06:17;;;;;;;14.63;12.00;;;11.90;99.90;;;;;;4588409;19;20465;-31
2023/01/22 10:07:57;;;;;;;16.33;12.40;;;12.00;99.90;;;;;;4587262;19;20492;-32
2023/01/22 10:09:30;;;;;;;15.47;12.97;;;11.90;99.90;;;;;;4589874;19;20457;-32
2023/01/22 10:11:01;;;;;;;12.73;9.77;;;11.90;99.90;;;;;;4588737;19;20555;-32
2023/01/22 10:12:32;;;;;;;16.15;12.20;;;12.00;99.90;;;;;;4589730;19;21053;-35
2023/01/22 10:14:08;;;;;;;14.30;11.80;;;12.00;99.90;;;;;;4590401;19;20016;-33
2023/01/22 10:15:40;;;;;;;14.93;11.93;;;12.00;99.90;;;;;;4589586;19;20025;-34
2023/01/22 10:17:27;;;;;;;14.30;11.03;;;12.00;99.90;;;;;;4587029;19;20472;-35
2023/01/22 10:19:23;;;;;;;15.17;11.10;;;12.00;99.90;;;;;;4588310;19;20456;-32
2023/01/22 10:20:54;;;;;;;15.67;11.50;;;12.00;99.90;;;;;;4588138;19;20938;-32
2023/01/22 10:22:26;;;;;;;16.77;13.05;;;12.00;99.90;;;;;;4591556;19;20484;-32
2023/01/22 10:23:58;;;;;;;12.83;10.90;;;12.00;99.90;;;;;;4587627;19;20021;-32
2023/01/22 10:25:29;;;;;;;15.10;11.20;;;11.90;99.90;;;;;;4588942;19;20481;-32
2023/01/22 10:27:12;;;;;;;15.15;10.50;;;12.00;99.90;;;;;;4588547;19;20011;-32
2023/01/22 10:28:47;;;;;;;14.63;11.30;;;11.90;99.90;;;;;;4590104;19;20034;-32
2023/01/22 10:30:23;;;;;;;14.97;10.53;;;12.00;99.90;;;;;;4589890;19;20461;-32
2023/01/22 10:31:57;;;;;;;12.87;9.87;;;12.00;99.90;;;;;;4590797;19;20509;-32
2023/01/22 10:33:28;;;;;;;15.00;11.73;;;12.00;99.90;;;;;;4589028;19;20883;-32
2023/01/22 10:35:04;;;;;;;15.55;11.90;;;11.90;99.90;;;;;;4590532;19;20508;-32
2023/01/22 10:36:35;;;;;;;18.27;11.83;;;12.00;99.90;;;;;;4591557;19;20022;-32
2023/01/22 10:38:20;;;;;;;15.63;11.98;;;12.00;99.90;;;;;;4591353;19;20512;-32
2023/01/22 10:39:55;;;;;;;15.30;10.90;;;12.00;99.90;;;;;;4589016;19;20020;-32
2023/01/22 10:41:28;;;;;;;13.63;10.13;;;12.00;99.90;;;;;;4590732;19;20473;-32
2023/01/22 10:43:04;;;;;;;14.17;10.20;;;12.00;99.90;;;;;;4588255;19;20480;-32
2023/01/22 10:44:36;;;;;;;16.23;13.00;;;11.90;99.90;;;;;;4588295;19;20468;-35
2023/01/22 10:46:26;;;;;;;14.82;11.57;;;11.90;99.90;;;;;;4588078;19;20491;-31
2023/01/22 10:48:13;;;;;;;15.13;10.93;;;12.00;99.90;;;;;;4587576;19;20119;-32
2023/01/22 10:49:45;;;;;;;17.17;13.63;;;12.00;99.90;;;;;;4587999;19;20461;-34
2023/01/22 10:51:21;;;;;;;17.70;13.40;;;12.00;99.90;;;;;;4589720;19;20485;-34
2023/01/22 10:52:53;;;;;;;14.83;11.93;;;11.90;99.90;;;;;;4586769;19;20476;-32
2023/01/22 10:54:28;;;;;;;17.67;13.73;;;12.00;99.90;;;;;;4587116;19;21056;-32
2023/01/22 10:57:52;;;;;;;18.43;13.63;;;11.90;99.90;;;;;;4587141;19;20469;-32
2023/01/22 10:59:28;;;;;;;19.00;14.07;;;12.00;99.90;;;;;;4588361;19;21105;-32
2023/01/22 11:01:05;;;;;;;18.95;13.80;;;11.90;99.90;;;;;;4587948;19;20025;-32
2023/01/22 11:02:39;;;;;;;20.30;14.40;;;12.00;99.90;;;;;;4587724;19;20022;-32
2023/01/22 11:04:20;;;;;;;18.47;12.30;;;11.90;99.90;;;;;;4589265;19;20511;-32
2023/01/22 11:06:01;;;;;;;16.17;11.87;;;11.90;99.90;;;;;;4586094;19;20480;-32
2023/01/22 11:07:32;;;;;;;19.60;13.60;;;11.90;99.90;;;;;;4588474;19;20507;-33
2023/01/22 11:09:15;;;;;;;21.42;15.18;;;11.90;99.90;;;;;;4588271;19;20822;-32
2023/01/22 11:10:49;;;;;;;25.60;15.40;;;11.90;99.90;;;;;;4586771;19;20019;-32
2023/01/22 11:12:26;;;;;;;18.87;13.17;;;11.90;99.90;;;;;;4586325;19;20465;-35
2023/01/22 11:14:20;;;;;;;18.30;13.70;;;11.90;99.90;;;;;;4585967;19;20480;-34
2023/01/22 11:16:03;;;;;;;17.67;14.47;;;11.90;99.90;;;;;;4589138;19;20487;-34
2023/01/22 11:17:41;;;;;;;14.73;12.67;;;11.90;99.90;;;;;;4587446;19;21033;-35
2023/01/22 11:19:15;;;;;;;15.57;11.80;;;11.90;99.90;;;;;;4584005;19;20493;-32
2023/01/22 11:20:52;;;;;;;17.13;14.20;;;11.90;99.90;;;;;;4585845;19;20743;-32
2023/01/22 11:22:32;;;;;;;17.93;14.83;;;12.00;99.90;;;;;;4586420;19;20503;-33
2023/01/22 11:24:14;;;;;;;15.23;12.77;;;12.00;99.90;;;;;;4585686;19;21048;-32
2023/01/22 11:26:02;;;;;;;16.83;12.90;;;12.00;99.90;;;;;;4586107;19;20493;-32
2023/01/22 11:28:02;;;;;;;17.67;13.17;;;12.00;99.90;;;;;;4585647;19;20146;-32
2023/01/22 11:30:02;;;;;;;16.53;11.90;;;12.00;99.90;;;;;;4585176;19;20498;-32
2023/01/22 11:31:47;;;;;;;13.93;11.43;;;12.10;99.90;;;;;;4588309;19;20014;-33
2023/01/22 11:33:31;;;;;;;13.80;10.97;;;12.10;99.90;;;;;;4586273;19;20485;-33
2023/01/22 11:35:21;;;;;;;14.23;10.73;;;12.10;99.90;;;;;;4585795;19;20456;-33
2023/01/22 11:37:12;;;;;;;14.47;11.63;;;12.10;99.90;;;;;;4588818;19;21092;-32
2023/01/22 11:38:53;;;;;;;13.80;10.50;;;12.10;99.90;;;;;;4587149;19;20471;-32
2023/01/22 11:40:26;;;;;;;15.27;11.25;;;12.10;99.90;;;;;;4586862;19;20587;-34
2023/01/22 11:42:24;;;;;;;14.10;10.93;;;12.10;99.90;;;;;;4586795;19;20011;-32
2023/01/22 11:44:21;;;;;;;18.63;13.50;;;12.00;99.90;;;;;;4584596;19;20496;-32
2023/01/22 11:46:15;;;;;;;17.80;15.73;;;12.10;99.90;;;;;;4585355;19;20488;-32
2023/01/22 11:48:20;;;;;;;15.73;13.20;;;12.10;99.90;;;;;;4586386;19;20553;-35
2023/01/22 11:50:04;;;;;;;14.10;11.30;;;12.10;99.90;;;;;;4588628;19;20513;-33
2023/01/22 11:51:39;;;;;;;13.70;11.00;;;12.10;99.90;;;;;;4585698;19;20545;-34
2023/01/22 11:53:38;;;;;;;17.33;13.20;;;12.10;99.90;;;;;;4586341;19;20484;-34
2023/01/22 11:55:41;;;;;;;14.77;11.63;;;12.10;99.90;;;;;;4587960;19;20473;-32
2023/01/22 12:00:23;;;;;;;15.63;12.37;;;12.00;99.90;;;;;;4584528;19;20457;-32
2023/01/22 12:05:33;;;;;;;13.23;11.03;;;12.00;99.90;;;;;;4587013;19;20452;-32
2023/01/22 12:07:43;;;;;;;16.27;12.93;;;11.90;99.90;;;;;;4587072;19;21101;-32
2023/01/22 12:09:30;;;;;;;18.77;12.27;;;12.00;99.90;;;;;;4587801;19;20465;-35
2023/01/22 12:11:29;;;;;;;14.53;11.13;;;12.00;99.90;;;;;;4587490;19;20472;-32
2023/01/22 12:13:27;;;;;;;16.00;12.50;;;12.00;99.90;;;;;;4587364;19;20519;-33
2023/01/22 12:17:57;;;;;;;19.60;15.57;;;12.00;99.90;;;;;;4587835;19;20488;-33
2023/01/22 12:19:42;;;;;;;23.67;18.27;;;12.00;99.90;;;;;;4587113;19;20441;-34
2023/01/22 12:21:40;;;;;;;22.13;17.10;;;12.00;99.90;;;;;;4586790;19;20572;-34
2023/01/22 12:23:24;;;;;;;35.00;27.13;;;12.00;99.90;;;;;;4587940;19;20457;-34
2023/01/22 12:25:17;;;;;;;20.20;15.00;;;12.00;99.90;;;;;;4591300;19;20602;-35
2023/01/22 12:26:55;;;;;;;19.90;15.03;;;12.10;99.90;;;;;;4593252;19;20464;-34
2023/01/22 12:28:39;;;;;;;18.40;14.03;;;12.10;99.90;;;;;;4590179;19;20476;-34
2023/01/22 12:30:45;;;;;;;15.40;12.27;;;12.10;99.90;;;;;;4592093;19;21129;-33
2023/01/22 12:32:18;;;;;;;16.40;12.77;;;12.10;99.90;;;;;;4590695;19;20551;-34
2023/01/22 12:33:49;;;;;;;14.17;11.53;;;12.10;99.90;;;;;;4591965;19;20473;-35
2023/01/22 12:35:21;;;;;;;15.80;12.02;;;12.00;99.90;;;;;;4592401;19;20893;-35
2023/01/22 12:36:52;;;;;;;15.80;12.23;;;12.00;99.90;;;;;;4592663;19;20021;-34
2023/01/22 12:38:54;;;;;;;15.52;11.85;;;12.00;99.90;;;;;;4591860;19;20572;-34
2023/01/22 12:40:33;;;;;;;15.37;11.53;;;12.00;99.90;;;;;;4590409;19;20722;-33
2023/01/22 12:42:21;;;;;;;17.53;13.63;;;12.00;99.90;;;;;;4592681;19;20461;-35
2023/01/22 12:43:58;;;;;;;16.57;12.90;;;12.00;99.90;;;;;;4591949;19;20501;-32
2023/01/22 12:45:38;;;;;;;16.10;12.77;;;12.00;99.90;;;;;;4592279;19;20511;-34
2023/01/22 12:47:24;;;;;;;17.40;13.03;;;12.00;99.90;;;;;;4589635;19;20547;-34
2023/01/22 12:49:08;;;;;;;17.40;12.70;;;12.00;99.90;;;;;;4590186;19;20519;-35
2023/01/22 12:50:48;;;;;;;55.30;29.47;;;12.00;99.90;;;;;;4591889;19;20478;-33
2023/01/22 12:52:28;;;;;;;21.13;15.57;;;12.00;99.90;;;;;;4592076;19;20534;-35
2023/01/22 12:54:19;;;;;;;19.20;14.03;;;12.00;99.90;;;;;;4593897;19;20460;-35
2023/01/22 12:55:57;;;;;;;18.70;13.70;;;12.00;99.90;;;;;;4592461;19;20441;-32
2023/01/22 12:57:39;;;;;;;15.53;13.07;;;12.00;99.90;;;;;;4594679;19;20797;-34
2023/01/22 12:59:35;;;;;;;18.33;13.10;;;12.00;99.90;;;;;;4593918;19;20483;-32
2023/01/22 13:01:10;;;;;;;23.67;15.53;;;12.10;99.90;;;;;;4593194;19;20485;-33
2023/01/22 13:02:41;;;;;;;19.03;13.40;;;12.10;99.90;;;;;;4592751;19;20465;-34
2023/01/22 13:04:13;;;;;;;18.73;12.90;;;12.00;99.90;;;;;;4593078;19;20456;-35
2023/01/22 13:05:45;;;;;;;18.52;13.15;;;12.10;99.90;;;;;;4591475;19;20513;-34
2023/01/22 13:07:22;;;;;;;19.20;13.60;;;12.10;99.90;;;;;;4592986;19;20029;-35
2023/01/22 13:08:53;;;;;;;19.17;12.70;;;12.10;99.90;;;;;;4594275;19;21106;-31
2023/01/22 13:10:28;;;;;;;18.48;12.68;;;12.10;99.90;;;;;;4592291;19;20461;-32
2023/01/22 13:12:23;;;;;;;20.17;13.77;;;12.10;99.90;;;;;;4592362;19;20014;-34
2023/01/22 13:14:19;;;;;;;23.53;16.67;;;12.10;99.90;;;;;;4591744;19;20473;-32
2023/01/22 13:15:55;;;;;;;27.03;19.70;;;10.60;99.90;;;;;;4590529;19;20492;-33
2023/01/22 13:17:28;;;;;;;33.20;23.37;;;9.40;99.90;;;;;;4592756;19;20444;-32
2023/01/22 13:19:16;;;;;;;33.93;22.90;;;8.80;99.90;;;;;;4593052;19;21081;-35
2023/01/22 13:21:02;;;;;;;34.60;22.90;;;8.50;99.90;;;;;;4592315;19;20572;-33
2023/01/22 13:22:33;;;;;;;27.03;18.67;;;8.30;99.90;;;;;;4591825;19;20852;-33
2023/01/22 13:24:11;;;;;;;29.92;20.77;;;8.20;99.90;;;;;;4593375;19;21041;-32
2023/01/22 13:25:42;;;;;;;33.33;20.50;;;8.20;99.90;;;;;;4590174;19;20021;-33
2023/01/22 13:27:24;;;;;;;27.98;18.63;;;8.10;99.90;;;;;;4592058;19;20791;-31
2023/01/22 13:29:04;;;;;;;39.40;23.67;;;8.10;99.90;;;;;;4592398;19;20035;-35
2023/01/22 13:30:35;;;;;;;41.17;24.03;;;8.00;99.90;;;;;;4592208;19;20836;-35
2023/01/22 13:32:16;;;;;;;36.25;22.33;;;8.00;99.90;;;;;;4593308;19;20468;-34
2023/01/22 13:33:54;;;;;;;24.55;17.30;;;8.00;99.90;;;;;;4592911;19;20066;-31
2023/01/22 13:35:25;;;;;;;37.20;24.33;;;8.00;99.90;;;;;;4590354;19;20014;-31
2023/01/22 13:36:56;;;;;;;23.13;17.35;;;7.90;99.90;;;;;;4593902;19;20524;-32
2023/01/22 13:38:28;;;;;;;;;;;7.90;99.90;;;;;;4592691;19;20039;-32
2023/01/22 13:40:13;;;;;;;32.70;23.35;;;7.90;99.90;;;;;;4592596;19;19922;-32
2023/01/22 13:41:47;;;;;;;23.77;17.83;;;7.90;99.90;;;;;;4591603;19;20006;-34
2023/01/22 13:43:18;;;;;;;52.60;43.80;;;7.90;99.90;;;;;;4591486;19;21082;-33
2023/01/22 13:44:50;;;;;;;24.10;18.55;;;7.90;99.90;;;;;;4591550;19;21060;-31
2023/01/22 13:46:21;;;;;;;21.65;16.98;;;7.90;99.90;;;;;;4592188;19;20021;-32
2023/01/22 13:48:00;;;;;;;21.40;17.07;;;7.90;99.90;;;;;;4591456;19;20047;-35
2023/01/22 13:49:32;;;;;;;21.90;17.10;;;7.90;99.90;;;;;;4594478;19;20550;-33
2023/01/22 13:51:09;;;;;;;17.80;14.20;;;7.80;99.90;;;;;;4593318;19;20566;-30
2023/01/22 13:52:41;;;;;;;29.43;20.60;;;7.80;99.90;;;;;;4591971;19;20886;-33
2023/01/22 13:54:36;;;;;;;28.50;19.52;;;7.80;99.90;;;;;;4592796;19;20479;-32
2023/01/22 13:56:16;;;;;;;23.80;17.10;;;7.80;99.90;;;;;;4592469;19;20014;-32
2023/01/22 13:57:55;;;;;;;43.23;26.37;;;7.80;99.90;;;;;;4589555;19;20469;-33
2023/01/22 13:59:34;;;;;;;31.63;21.87;;;7.80;99.90;;;;;;4587609;19;20485;-35
2023/01/22 14:01:06;;;;;;;21.20;15.90;;;7.80;99.90;;;;;;4591145;19;20456;-30
2023/01/22 14:02:38;;;;;;;27.50;21.00;;;7.70;99.90;;;;;;4591909;19;21043;-31
2023/01/22 14:04:34;;;;;;;23.05;17.00;;;7.70;99.90;;;;;;4590376;19;21162;-32
2023/01/22 14:09:32;;;;;;;22.77;15.00;;;7.80;99.90;;;;;;4591400;19;20453;-33
2023/01/22 14:11:03;;;;;;;20.00;15.37;;;7.80;99.90;;;;;;4590484;19;20458;-32
2023/01/22 14:12:35;;;;;;;21.98;15.55;;;7.70;99.90;;;;;;4591140;19;20472;-32
2023/01/22 14:14:15;;;;;;;23.13;18.03;;;7.70;99.90;;;;;;4591549;19;20069;-35
2023/01/22 14:15:57;;;;;;;22.87;17.17;;;7.70;99.90;;;;;;4589489;19;20484;-32
2023/01/22 14:17:33;;;;;;;22.02;15.93;;;7.70;99.90;;;;;;4591820;19;21036;-32
2023/01/22 14:19:05;;;;;;;19.53;13.87;;;7.70;99.90;;;;;;4592450;19;20322;-32